Time;durP1;ratioP1;P1;durP2;ratioP2;P2;SDS_P1;SDS_P2;PMS_P1;PMS_P2;Temp;Humidity;BMP_temperature;BMP_pressure;BME280_temperature;BME280_humidity;BME280_pressure;Samples;Min_cycle;Max_cycle;Signal;HPM_P1;HPM_P2
2022/10/16 00:01:18;;;;;;;7.77;2.10;;;;;;;13.62;70.49;100513.41;4915116;29;20501;-65
2022/10/16 00:03:45;;;;;;;4.72;1.92;;;;;;;13.58;70.67;100520.19;4914564;29;20519;-66
2022/10/16 00:06:13;;;;;;;6.18;1.75;;;;;;;13.55;70.93;100526.78;4914912;29;20434;-67
2022/10/16 00:08:40;;;;;;;2.60;2.20;;;;;;;13.70;70.62;100523.25;4914929;29;20051;-66
2022/10/16 00:11:16;;;;;;;3.35;1.60;;;;;;;13.56;70.99;100528.47;4915329;29;20048;-65
2022/10/16 00:13:43;;;;;;;2.70;1.65;;;;;;;13.69;70.43;100533.22;4915293;29;20040;-67
2022/10/16 00:16:11;;;;;;;8.27;2.00;;;;;;;13.78;70.16;100534.84;4914906;29;20044;-66
2022/10/16 00:18:38;;;;;;;3.22;1.80;;;;;;;13.71;70.44;100539.25;4914720;29;20515;-67
2022/10/16 00:21:07;;;;;;;2.63;1.75;;;;;;;13.80;70.13;100527.41;4915065;29;20048;-66
2022/10/16 00:23:34;;;;;;;3.08;1.70;;;;;;;13.87;69.89;100535.56;4913635;29;20052;-65
2022/10/16 00:26:04;;;;;;;2.53;1.55;;;;;;;13.83;69.80;100532.41;4914273;29;20504;-66
2022/10/16 00:28:31;;;;;;;3.35;1.95;;;;;;;13.93;69.77;100542.09;4894030;29;20051;-64
2022/10/16 00:30:58;;;;;;;5.03;1.80;;;;;;;13.74;70.03;100546.16;4875814;29;20079;-65
2022/10/16 00:33:25;;;;;;;4.85;1.88;;;;;;;13.73;70.51;100549.84;4876780;29;20049;-65
2022/10/16 00:35:51;;;;;;;10.73;1.92;;;;;;;13.85;69.96;100542.19;4875664;29;20072;-65
2022/10/16 00:38:18;;;;;;;2.28;1.55;;;;;;;13.67;70.83;100550.63;4876557;29;20387;-66
2022/10/16 00:40:44;;;;;;;2.88;1.67;;;;;;;13.80;70.13;100545.41;4873559;29;20060;-68
2022/10/16 00:43:45;;;;;;;3.10;2.20;;;;;;;13.79;70.40;100549.97;4877494;29;20049;-66
2022/10/16 00:46:36;;;;;;;1.85;1.63;;;;;;;13.70;70.37;100550.22;4876062;29;20041;-66
2022/10/16 00:49:09;;;;;;;6.65;1.60;;;;;;;13.81;70.04;100542.56;4877190;29;20060;-66
2022/10/16 00:51:38;;;;;;;1.67;1.27;;;;;;;13.74;70.26;100549.69;4876062;29;20055;-66
2022/10/16 00:54:10;;;;;;;3.40;1.40;;;;;;;13.85;70.21;100544.88;4875835;29;20413;-66
2022/10/16 00:56:37;;;;;;;5.00;1.60;;;;;;;13.73;70.40;100558.78;4876647;29;20075;-67
2022/10/16 00:59:09;;;;;;;2.75;1.83;;;;;;;13.68;70.86;100558.50;4876144;29;20053;-66
2022/10/16 01:01:35;;;;;;;2.75;1.77;;;;;;;13.71;70.74;100562.69;4876707;29;20056;-65
2022/10/16 01:04:02;;;;;;;3.78;1.73;;;;;;;13.89;69.93;100559.66;4889816;29;20056;-65
2022/10/16 01:07:24;;;;;;;5.25;2.00;;;;;;;13.98;69.57;100553.16;4894511;29;20056;-65
2022/10/16 01:10:10;;;;;;;4.63;1.50;;;;;;;13.86;69.96;100558.16;4875822;29;20055;-65
2022/10/16 01:13:00;;;;;;;3.78;1.92;;;;;;;13.69;70.25;100557.47;4876185;29;20055;-65
2022/10/16 01:15:42;;;;;;;2.65;1.70;;;;;;;13.78;70.27;100558.28;4875465;29;20071;-65
2022/10/16 01:18:47;;;;;;;5.90;1.63;;;;;;;13.80;70.26;100562.47;4875755;29;20051;-65
2022/10/16 01:21:37;;;;;;;1.88;1.30;;;;;;;13.61;70.99;100568.34;4856908;29;20041;-67
2022/10/16 01:24:13;;;;;;;3.83;1.60;;;;;;;13.85;70.28;100574.53;4875596;29;20049;-67
2022/10/16 01:27:03;;;;;;;1.85;1.55;;;;;;;13.70;70.60;100571.78;4875980;29;20049;-67
2022/10/16 01:29:38;;;;;;;2.30;1.50;;;;;;;13.71;70.46;100579.72;4870953;29;20089;-66
2022/10/16 01:32:37;;;;;;;2.03;1.55;;;;;;;13.74;70.33;100576.66;4876179;29;20060;-66
2022/10/16 01:35:21;;;;;;;2.28;1.85;;;;;;;13.82;70.08;100594.63;4871713;29;20490;-66
2022/10/16 01:37:56;;;;;;;5.18;2.05;;;;;;;13.67;70.44;100589.19;4875503;29;20412;-66
2022/10/16 01:40:26;;;;;;;4.03;1.70;;;;;;;13.79;70.44;100582.34;4875562;29;20049;-67
2022/10/16 01:42:59;;;;;;;3.60;1.80;;;;;;;13.57;70.75;100589.44;4874883;29;20045;-66
2022/10/16 01:45:28;;;;;;;2.65;1.90;;;;;;;13.54;71.38;100591.66;4875438;29;20049;-65
2022/10/16 01:47:55;;;;;;;2.65;1.50;;;;;;;13.53;71.47;100592.69;4872354;29;20064;-66
2022/10/16 01:50:24;;;;;;;3.38;1.70;;;;;;;13.66;70.95;100594.75;4875508;29;20410;-65
2022/10/16 01:52:52;;;;;;;2.03;1.50;;;;;;;13.55;71.18;100579.84;4875233;29;20045;-65
2022/10/16 01:55:26;;;;;;;1.85;1.65;;;;;;;13.74;70.63;100583.91;4875784;29;20059;-68
2022/10/16 01:57:54;;;;;;;1.63;1.50;;;;;;;13.73;70.66;100593.81;4875918;29;20053;-67
2022/10/16 02:00:22;;;;;;;2.05;1.58;;;;;;;13.82;70.34;100591.94;4882614;29;20404;-65
2022/10/16 02:02:52;;;;;;;5.20;1.55;;;;;;;13.70;70.66;100598.75;4894369;29;20048;-67
2022/10/16 02:05:33;;;;;;;4.05;1.70;;;;;;;13.72;70.54;100592.16;4894382;29;20052;-66
2022/10/16 02:08:00;;;;;;;4.00;1.90;;;;;;;13.77;70.59;100603.28;4904055;29;20056;-65
2022/10/16 02:10:31;;;;;;;3.72;1.92;;;;;;;13.80;70.02;100602.03;4913257;29;20055;-66
2022/10/16 02:13:07;;;;;;;3.80;1.88;;;;;;;13.74;70.63;100605.47;4912354;29;20394;-66
2022/10/16 02:15:34;;;;;;;3.22;1.50;;;;;;;13.79;70.36;100613.88;4912214;29;20048;-66
2022/10/16 02:18:02;;;;;;;4.28;1.90;;;;;;;13.64;70.85;100619.19;4905212;29;20051;-65
2022/10/16 02:20:48;;;;;;;4.05;1.70;;;;;;;13.62;71.22;100637.41;4892721;29;20055;-67
2022/10/16 02:23:34;;;;;;;3.67;1.77;;;;;;;13.56;71.42;100632.72;4894732;29;20401;-67
2022/10/16 02:26:06;;;;;;;1.80;1.42;;;;;;;13.47;71.49;100623.06;4893038;29;20486;-66
2022/10/16 02:28:44;;;;;;;3.95;1.58;;;;;;;13.64;71.27;100613.81;4889277;29;20048;-66
2022/10/16 02:31:16;;;;;;;3.20;2.05;;;;;;;13.90;69.96;100612.56;4893537;29;20048;-66
2022/10/16 02:33:43;;;;;;;;;;;;;;;13.85;70.13;100610.44;4876769;29;20049;-66
2022/10/16 02:36:10;;;;;;;2.53;1.73;;;;;;;13.76;70.31;100620.44;4876258;29;22722;-67
2022/10/16 02:38:39;;;;;;;3.70;1.63;;;;;;;13.66;70.64;100627.94;4891299;29;20058;-66
2022/10/16 02:41:06;;;;;;;2.72;1.90;;;;;;;13.72;70.49;100626.38;4894967;29;20428;-66
2022/10/16 02:43:33;;;;;;;5.97;1.60;;;;;;;13.80;70.37;100627.19;4894915;29;20044;-66
2022/10/16 02:46:00;;;;;;;2.25;1.73;;;;;;;13.88;69.99;100625.41;4894615;29;20057;-66
2022/10/16 02:48:26;;;;;;;3.08;1.45;;;;;;;13.94;69.69;100622.81;4893725;29;20052;-66
2022/10/16 02:50:53;;;;;;;4.35;1.95;;;;;;;13.84;70.02;100624.94;4876185;29;20163;-67
2022/10/16 02:53:19;;;;;;;6.60;5.00;;;;;;;13.63;70.78;100630.16;4876817;29;20053;-67
2022/10/16 02:55:46;;;;;;;6.07;4.10;;;;;;;13.83;70.22;100629.47;4878541;29;20049;-68
2022/10/16 02:58:12;;;;;;;5.57;2.72;;;;;;;13.96;69.50;100633.41;4889647;29;20045;-67
2022/10/16 03:00:39;;;;;;;4.20;2.05;;;;;;;13.97;69.18;100629.69;4898004;29;20509;-66
2022/10/16 03:03:05;;;;;;;4.22;2.03;;;;;;;14.00;69.28;100622.06;4898266;29;20057;-66
2022/10/16 03:05:32;;;;;;;3.95;2.10;;;;;;;13.95;69.11;100627.19;4898186;29;20131;-67
2022/10/16 03:08:00;;;;;;;3.05;1.42;;;;;;;13.71;70.25;100638.19;4906777;29;20056;-67
2022/10/16 03:10:27;;;;;;;3.72;1.60;;;;;;;13.67;70.49;100647.66;4916939;29;20393;-67
2022/10/16 03:12:53;;;;;;;1.40;1.30;;;;;;;13.79;69.74;100647.06;4916896;29;20082;-66
2022/10/16 03:15:20;;;;;;;3.67;1.83;;;;;;;13.79;70.01;100651.59;4916838;29;20044;-66
2022/10/16 03:17:46;;;;;;;2.88;1.25;;;;;;;13.65;70.41;100650.53;4916579;29;20075;-65
2022/10/16 03:20:13;;;;;;;5.30;1.70;;;;;;;13.61;70.81;100643.81;4888837;29;20100;-67
2022/10/16 03:22:39;;;;;;;2.75;1.70;;;;;;;13.63;70.69;100640.94;4879437;29;20055;-65
2022/10/16 03:25:06;;;;;;;1.80;1.42;;;;;;;13.66;70.55;100644.09;4878923;29;20057;-67
2022/10/16 03:27:33;;;;;;;2.22;1.55;;;;;;;13.63;70.54;100652.59;4879315;29;20105;-67
2022/10/16 03:29:59;;;;;;;4.20;1.50;;;;;;;13.74;70.17;100656.69;4879297;29;20068;-67
2022/10/16 03:32:27;;;;;;;4.28;1.80;;;;;;;13.77;69.88;100662.59;4879109;29;20056;-67
2022/10/16 03:34:56;;;;;;;2.85;1.75;;;;;;;13.64;70.46;100670.44;4879533;29;20057;-68
2022/10/16 03:37:22;;;;;;;3.83;1.63;;;;;;;13.53;70.78;100671.69;4879389;29;20053;-67
2022/10/16 03:39:49;;;;;;;2.30;1.45;;;;;;;13.69;70.28;100676.09;4879277;29;20049;-66
2022/10/16 03:42:16;;;;;;;3.17;1.80;;;;;;;13.55;70.82;100682.28;4879094;29;20049;-66
2022/10/16 03:44:42;;;;;;;2.60;1.88;;;;;;;13.64;70.58;100683.06;4862572;29;20049;-65
2022/10/16 03:47:09;;;;;;;5.03;1.65;;;;;;;13.32;71.28;100690.38;4878985;29;20454;-67
2022/10/16 03:49:35;;;;;;;17.98;2.28;;;;;;;13.34;71.62;100689.16;4878659;29;20443;-65
2022/10/16 03:52:02;;;;;;;2.03;1.80;;;;;;;13.46;71.47;100688.78;4895083;29;20079;-66
2022/10/16 03:54:28;;;;;;;5.93;1.55;;;;;;;13.47;71.31;100690.44;4897642;29;20056;-65
2022/10/16 03:56:55;;;;;;;3.55;1.65;;;;;;;13.44;71.19;100699.72;4896757;29;20052;-66
2022/10/16 03:59:21;;;;;;;5.53;1.88;;;;;;;13.41;71.64;100696.53;4897542;29;20048;-67
2022/10/16 04:01:48;;;;;;;5.95;1.92;;;;;;;13.53;71.06;100697.81;4880551;29;20124;-65
2022/10/16 04:04:14;;;;;;;4.85;1.90;;;;;;;13.48;71.32;100713.66;4897383;29;20505;-66
2022/10/16 04:06:41;;;;;;;2.85;1.50;;;;;;;13.45;71.36;100708.63;4896601;29;20421;-67
2022/10/16 04:09:07;;;;;;;2.70;1.70;;;;;;;13.38;71.58;100721.16;4915784;29;20444;-66
2022/10/16 04:11:34;;;;;;;3.70;1.73;;;;;;;13.41;71.33;100718.09;4916225;29;20518;-66
2022/10/16 04:14:00;;;;;;;7.85;1.77;;;;;;;13.28;71.79;100710.59;4915829;29;20535;-67
2022/10/16 04:16:27;;;;;;;5.07;1.92;;;;;;;13.38;71.54;100719.28;4915927;29;20048;-68
2022/10/16 04:18:53;;;;;;;3.05;1.83;;;;;;;13.41;71.63;100710.00;4913509;29;20055;-66
2022/10/16 04:21:20;;;;;;;4.35;1.80;;;;;;;13.56;70.86;100710.91;4916030;29;20048;-66
2022/10/16 04:23:46;;;;;;;2.70;1.50;;;;;;;13.47;71.39;100710.13;4916051;29;20048;-66
2022/10/16 04:26:12;;;;;;;2.35;1.85;;;;;;;13.35;71.24;100720.50;4915613;29;20044;-66
2022/10/16 04:28:39;;;;;;;4.68;1.58;;;;;;;13.44;71.20;100701.56;4906816;29;20055;-66
2022/10/16 04:31:06;;;;;;;3.13;1.92;;;;;;;13.46;70.90;100696.84;4897004;29;20117;-67
2022/10/16 04:33:33;;;;;;;4.32;1.90;;;;;;;13.38;71.38;100708.50;4897004;29;20420;-66
2022/10/16 04:36:01;;;;;;;3.30;2.08;;;;;;;13.29;71.30;100693.44;4896914;29;20440;-67
2022/10/16 04:38:27;;;;;;;2.10;1.90;;;;;;;13.57;70.59;100691.03;4896609;29;20118;-66
2022/10/16 04:40:54;;;;;;;1.55;1.45;;;;;;;13.64;70.43;100680.38;4896932;29;20495;-65
2022/10/16 04:43:21;;;;;;;1.90;1.70;;;;;;;13.63;70.19;100684.06;4895533;29;20448;-65
2022/10/16 04:45:50;;;;;;;2.80;1.77;;;;;;;13.62;70.23;100677.84;4896427;29;20076;-66
2022/10/16 04:48:17;;;;;;;2.13;1.63;;;;;;;13.44;70.75;100685.41;4895608;29;20061;-66
2022/10/16 04:50:44;;;;;;;2.75;1.77;;;;;;;13.61;70.21;100686.97;4896304;29;20055;-65
2022/10/16 04:53:10;;;;;;;14.00;2.10;;;;;;;13.45;70.57;100690.59;4896337;29;20063;-65
2022/10/16 04:55:37;;;;;;;4.72;1.60;;;;;;;13.21;71.63;100686.22;4895394;29;20048;-66
2022/10/16 04:58:04;;;;;;;5.70;1.90;;;;;;;13.18;71.69;100693.81;4896331;29;20405;-66
2022/10/16 05:00:31;;;;;;;5.78;1.90;;;;;;;13.10;72.34;100692.03;4895832;29;20058;-67
2022/10/16 05:02:59;;;;;;;7.50;1.80;;;;;;;13.00;72.46;100712.94;4895973;29;20064;-68
2022/10/16 05:05:26;;;;;;;4.50;1.83;;;;;;;13.12;72.29;100714.25;4895250;29;20055;-69
2022/10/16 05:07:53;;;;;;;5.90;2.22;;;;;;;13.27;71.74;100711.63;4905484;29;20048;-65
2022/10/16 05:10:20;;;;;;;3.05;1.95;;;;;;;13.41;71.18;100723.50;4914942;29;20052;-67
2022/10/16 05:12:46;;;;;;;4.13;1.88;;;;;;;13.43;71.14;100729.56;4914939;29;20060;-65
2022/10/16 05:15:13;;;;;;;5.10;1.75;;;;;;;13.14;71.98;100733.75;4914957;29;20052;-65
2022/10/16 05:17:39;;;;;;;2.92;1.80;;;;;;;13.11;72.00;100726.00;4914874;29;20051;-65
2022/10/16 05:20:10;;;;;;;2.25;1.58;;;;;;;13.37;71.32;100727.56;4914531;29;20079;-65
2022/10/16 05:22:37;;;;;;;2.67;2.10;;;;;;;13.16;71.66;100725.50;4914519;29;20047;-68
2022/10/16 05:25:04;;;;;;;4.10;2.03;;;;;;;12.93;72.31;100730.81;4914516;29;20059;-67
2022/10/16 05:27:30;;;;;;;7.45;2.30;;;;;;;12.78;73.10;100720.78;4914408;29;20130;-67
2022/10/16 05:29:57;;;;;;;4.28;1.88;;;;;;;12.50;74.25;100724.91;4914632;29;20055;-67
2022/10/16 05:32:23;;;;;;;5.90;2.17;;;;;;;12.36;74.63;100730.00;4906700;29;20072;-66
2022/10/16 05:34:50;;;;;;;3.35;2.47;;;;;;;12.65;73.76;100724.00;4895715;29;20068;-66
2022/10/16 05:37:16;;;;;;;3.05;2.08;;;;;;;12.62;73.64;100723.50;4895259;29;20060;-66
2022/10/16 05:39:43;;;;;;;3.15;2.20;;;;;;;12.35;74.82;100727.47;4895350;29;20051;-66
2022/10/16 05:42:09;;;;;;;4.55;2.65;;;;;;;12.27;75.36;100722.09;4895358;29;20063;-66
2022/10/16 05:44:36;;;;;;;16.27;10.30;;;;;;;12.50;74.42;100741.06;4895415;29;20056;-66
2022/10/16 05:47:02;;;;;;;16.77;7.85;;;;;;;12.53;74.25;100751.47;4895258;29;20060;-67
2022/10/16 05:49:29;;;;;;;9.73;5.47;;;;;;;12.68;73.33;100754.28;4880134;29;20512;-67
2022/10/16 05:51:55;;;;;;;4.72;2.40;;;;;;;12.87;72.81;100737.78;4877395;29;20053;-65
2022/10/16 05:54:22;;;;;;;8.57;2.78;;;;;;;12.71;73.00;100744.00;4876938;29;20049;-67
2022/10/16 05:56:48;;;;;;;7.10;2.42;;;;;;;12.66;73.34;100746.41;4874240;29;20410;-66
2022/10/16 05:59:15;;;;;;;4.63;2.10;;;;;;;12.70;73.38;100742.34;4876201;29;20529;-65
2022/10/16 06:01:41;;;;;;;5.40;2.80;;;;;;;12.70;73.30;100747.72;4893779;29;20048;-66
2022/10/16 06:04:08;;;;;;;4.38;2.83;;;;;;;12.70;73.33;100742.34;4894196;29;20857;-67
2022/10/16 06:06:40;;;;;;;5.40;2.40;;;;;;;12.83;72.39;100748.06;4894428;29;20480;-66
2022/10/16 06:09:06;;;;;;;3.97;2.53;;;;;;;13.00;72.13;100753.34;4913686;29;20078;-65
2022/10/16 06:11:33;;;;;;;6.15;2.50;;;;;;;12.87;72.47;100760.16;4914065;29;20051;-69
2022/10/16 06:14:02;;;;;;;6.32;2.67;;;;;;;12.89;72.60;100757.28;4914385;29;20665;-67
2022/10/16 06:16:29;;;;;;;6.47;2.70;;;;;;;12.79;72.61;100768.22;4904683;29;20136;-67
2022/10/16 06:18:56;;;;;;;3.97;2.53;;;;;;;12.72;73.21;100761.84;4893274;29;20049;-67
2022/10/16 06:21:24;;;;;;;3.10;2.63;;;;;;;12.63;73.29;100771.81;4889432;29;20512;-67
2022/10/16 06:23:51;;;;;;;8.05;3.00;;;;;;;12.58;73.78;100773.31;4876550;29;20123;-67
2022/10/16 06:26:21;;;;;;;3.47;2.40;;;;;;;12.79;73.15;100756.63;4876552;29;20091;-65
2022/10/16 06:28:48;;;;;;;7.32;2.55;;;;;;;12.97;72.35;100761.78;4881865;29;20069;-64
2022/10/16 06:31:15;;;;;;;6.60;2.67;;;;;;;12.84;72.54;100773.94;4895887;29;20428;-66
2022/10/16 06:33:42;;;;;;;5.55;2.42;;;;;;;12.61;73.45;100789.97;4887051;29;20049;-65
2022/10/16 06:36:14;;;;;;;4.78;2.33;;;;;;;12.79;73.41;100779.00;4880734;29;20060;-65
2022/10/16 06:38:42;;;;;;;9.32;2.55;;;;;;;12.91;72.64;100786.72;4880523;29;20057;-65
2022/10/16 06:41:12;;;;;;;5.07;2.20;;;;;;;12.78;73.33;100798.88;4880836;29;20518;-66
2022/10/16 06:43:39;;;;;;;3.72;2.17;;;;;;;13.03;72.64;100796.94;4880845;29;20394;-66
2022/10/16 06:46:09;;;;;;;6.82;2.30;;;;;;;12.88;72.81;100804.91;4880627;29;20060;-66
2022/10/16 06:48:36;;;;;;;2.97;2.08;;;;;;;13.07;72.18;100805.50;4880847;29;20420;-66
2022/10/16 06:51:05;;;;;;;4.28;2.33;;;;;;;13.15;72.09;100810.88;4881070;29;20053;-64
2022/10/16 06:53:37;;;;;;;4.90;3.38;;;;;;;13.16;71.72;100806.31;4879816;29;20127;-65
2022/10/16 06:56:30;;;;;;;6.28;2.80;;;;;;;13.21;71.79;100803.91;4880243;29;20048;-67
2022/10/16 06:58:57;;;;;;;8.57;3.35;;;;;;;13.24;71.79;100807.09;4879855;29;20060;-65
2022/10/16 07:01:25;;;;;;;8.55;3.33;;;;;;;13.24;72.16;100806.25;4880296;29;20053;-66
2022/10/16 07:03:52;;;;;;;7.93;2.95;;;;;;;13.39;71.57;100812.59;4880293;29;20056;-65
2022/10/16 07:06:21;;;;;;;3.95;2.20;;;;;;;13.49;71.02;100812.34;4880232;29;20498;-66
2022/10/16 07:08:48;;;;;;;4.28;2.53;;;;;;;13.69;70.59;100826.22;4911940;29;20047;-65
2022/10/16 07:11:18;;;;;;;6.88;3.05;;;;;;;13.70;70.46;100833.28;4917592;29;20048;-65
2022/10/16 07:13:46;;;;;;;5.95;3.42;;;;;;;13.74;69.90;100848.97;4917650;29;20393;-67
2022/10/16 07:16:22;;;;;;;3.30;2.25;;;;;;;13.95;69.84;100837.56;4917634;29;20051;-66
2022/10/16 07:18:51;;;;;;;9.65;4.78;;;;;;;13.91;69.83;100835.38;4917646;29;20074;-65
2022/10/16 07:21:22;;;;;;;4.07;2.65;;;;;;;13.80;70.21;100831.25;4917599;29;20056;-66
2022/10/16 07:23:53;;;;;;;6.80;3.97;;;;;;;13.83;69.85;100831.72;4917513;29;20052;-66
2022/10/16 07:26:21;;;;;;;5.80;3.55;;;;;;;13.90;69.83;100842.63;4917529;29;20519;-66
2022/10/16 07:28:47;;;;;;;6.45;2.90;;;;;;;14.21;68.70;100839.88;4917398;29;20057;-66
2022/10/16 07:31:16;;;;;;;4.38;2.50;;;;;;;14.09;69.42;100841.34;4917342;29;20136;-66
2022/10/16 07:33:44;;;;;;;4.85;2.60;;;;;;;13.90;69.75;100831.00;4917351;29;20048;-67
2022/10/16 07:36:12;;;;;;;7.05;2.55;;;;;;;13.86;69.90;100825.13;4917361;29;20052;-67
2022/10/16 07:38:42;;;;;;;6.25;2.55;;;;;;;14.24;68.84;100846.78;4917109;29;20052;-65
2022/10/16 07:41:14;;;;;;;7.30;3.17;;;;;;;14.34;68.08;100844.66;4916601;29;20052;-66
2022/10/16 07:43:48;;;;;;;6.65;2.90;;;;;;;14.33;68.38;100839.47;4917302;29;20096;-66
2022/10/16 07:46:16;;;;;;;5.05;2.15;;;;;;;14.30;68.34;100844.19;4916961;29;20055;-66
2022/10/16 07:48:46;;;;;;;4.13;2.15;;;;;;;14.61;67.49;100837.84;4916809;29;20512;-67
2022/10/16 07:51:17;;;;;;;2.85;2.08;;;;;;;14.14;69.08;100841.63;4916807;29;20054;-66
2022/10/16 07:53:44;;;;;;;2.55;2.00;;;;;;;14.42;68.34;100841.88;4916811;29;20059;-65
2022/10/16 07:56:11;;;;;;;8.93;1.85;;;;;;;14.48;68.27;100840.31;4917016;29;20048;-67
2022/10/16 07:58:38;;;;;;;3.67;1.80;;;;;;;14.46;68.20;100840.53;4916685;29;20103;-66
2022/10/16 08:01:07;;;;;;;8.18;2.60;;;;;;;14.49;67.86;100845.53;4916718;29;20048;-66
2022/10/16 08:03:34;;;;;;;6.68;2.15;;;;;;;14.43;68.46;100862.47;4916792;29;20068;-65
2022/10/16 08:06:02;;;;;;;3.28;1.98;;;;;;;14.50;68.64;100871.53;4916582;29;20492;-65
2022/10/16 08:08:28;;;;;;;2.33;1.63;;;;;;;14.65;68.13;100868.84;4916571;29;20052;-65
2022/10/16 08:10:55;;;;;;;5.78;2.28;;;;;;;14.80;67.43;100878.84;4916542;29;20060;-66
2022/10/16 08:13:21;;;;;;;2.88;1.70;;;;;;;14.87;67.24;100883.34;4916327;29;20054;-65
2022/10/16 08:15:48;;;;;;;5.55;1.92;;;;;;;14.79;67.56;100890.69;4916704;29;20445;-65
2022/10/16 08:18:15;;;;;;;7.43;2.10;;;;;;;14.88;67.26;100874.22;4916565;29;20055;-65
2022/10/16 08:20:42;;;;;;;4.78;2.08;;;;;;;14.90;67.33;100874.88;4916427;29;20047;-67
2022/10/16 08:23:11;;;;;;;4.97;1.75;;;;;;;15.14;66.89;100881.88;4916742;29;20397;-66
2022/10/16 08:25:38;;;;;;;5.60;2.00;;;;;;;15.20;66.35;100883.81;4916638;29;20488;-66
2022/10/16 08:28:06;;;;;;;3.70;2.13;;;;;;;15.24;66.41;100878.88;4916370;29;20055;-66
2022/10/16 08:30:33;;;;;;;2.13;1.30;;;;;;;15.16;66.22;100879.81;4916813;29;20068;-65
2022/10/16 08:33:01;;;;;;;2.70;1.50;;;;;;;15.22;66.24;100881.78;4916685;29;20473;-66
2022/10/16 08:35:27;;;;;;;3.70;1.30;;;;;;;15.60;65.16;100881.63;4916589;29;20062;-65
2022/10/16 08:37:54;;;;;;;3.53;1.60;;;;;;;15.60;64.80;100892.44;4916779;29;20056;-66
2022/10/16 08:40:32;;;;;;;4.25;1.42;;;;;;;15.46;65.17;100883.31;4916576;29;20048;-65
2022/10/16 08:43:23;;;;;;;4.05;1.70;;;;;;;15.59;64.89;100885.38;4916424;29;20048;-66
2022/10/16 08:46:19;;;;;;;5.00;1.40;;;;;;;15.11;65.91;100892.22;4916047;29;20044;-66
2022/10/16 08:48:49;;;;;;;3.63;1.10;;;;;;;15.46;64.99;100887.91;4916117;29;20272;-65
2022/10/16 08:51:35;;;;;;;2.55;1.10;;;;;;;15.54;64.68;100890.53;4916335;29;20044;-65
2022/10/16 08:54:28;;;;;;;2.67;1.10;;;;;;;15.35;65.40;100893.78;4915879;29;20048;-66
2022/10/16 08:56:56;;;;;;;6.47;1.48;;;;;;;15.40;64.81;100891.38;4915939;29;20059;-65
2022/10/16 08:59:23;;;;;;;2.75;1.30;;;;;;;15.48;64.79;100907.50;4915417;29;20071;-66
2022/10/16 09:01:51;;;;;;;2.55;1.20;;;;;;;15.69;64.49;100906.75;4915928;29;20381;-66
2022/10/16 09:04:42;;;;;;;6.88;2.17;;;;;;;15.89;63.61;100912.41;4909379;29;20051;-65
2022/10/16 09:07:23;;;;;;;9.18;1.17;;;;;;;16.46;61.88;100916.94;4900123;29;20480;-67
2022/10/16 09:10:04;;;;;;;3.47;1.23;;;;;;;17.16;59.53;100917.06;4897588;29;20052;-67
2022/10/16 09:12:42;;;;;;;6.38;1.73;;;;;;;16.93;59.70;100923.59;4896915;29;20493;-66
2022/10/16 09:15:24;;;;;;;3.25;1.08;;;;;;;16.92;59.42;100940.91;4889215;29;20045;-65
2022/10/16 09:18:05;;;;;;;4.30;1.05;;;;;;;16.68;60.46;100936.75;4877639;29;20052;-67
2022/10/16 09:20:41;;;;;;;5.97;2.33;;;;;;;16.98;59.53;100926.53;4877820;29;20124;-65
2022/10/16 09:23:13;;;;;;;4.45;1.75;;;;;;;17.12;59.29;100922.88;4877619;29;20049;-65
2022/10/16 09:25:44;;;;;;;1.92;1.05;;;;;;;17.00;59.19;100910.94;4877999;29;20045;-66
2022/10/16 09:28:11;;;;;;;5.47;1.27;;;;;;;17.74;57.34;100915.72;4878059;29;20049;-66
2022/10/16 09:30:39;;;;;;;4.43;1.73;;;;;;;17.71;57.02;100920.72;4877412;29;20060;-65
2022/10/16 09:33:07;;;;;;;3.83;1.00;;;;;;;17.71;56.80;100915.31;4877807;29;20051;-67
2022/10/16 09:35:39;;;;;;;5.70;1.08;;;;;;;17.70;56.75;100929.91;4878085;29;20057;-65
2022/10/16 09:38:07;;;;;;;1.08;0.98;;;;;;;17.65;56.27;100929.66;4885696;29;20051;-66
2022/10/16 09:40:38;;;;;;;1.73;0.90;;;;;;;18.20;55.46;100934.09;4896311;29;20055;-66
2022/10/16 09:43:22;;;;;;;;;;;;;;;18.99;53.37;100937.91;4896890;29;20070;-67
2022/10/16 09:46:00;;;;;;;2.13;0.80;;;;;;;19.65;51.13;100945.09;4896307;29;19945;-65
2022/10/16 09:48:36;;;;;;;2.70;0.88;;;;;;;18.88;52.12;100947.50;4896207;29;20504;-67
2022/10/16 09:51:05;;;;;;;3.30;1.52;;;;;;;19.13;52.00;100946.88;4895975;29;20059;-67
2022/10/16 09:53:44;;;;;;;4.60;1.00;;;;;;;18.63;53.17;100951.91;4896233;29;20055;-66
2022/10/16 09:56:20;;;;;;;2.90;0.82;;;;;;;18.62;53.23;100953.78;4895868;29;20053;-66
2022/10/16 09:58:55;;;;;;;3.33;0.93;;;;;;;18.91;52.13;100954.41;4895505;29;20044;-65
2022/10/16 10:01:37;;;;;;;4.28;0.80;;;;;;;19.08;52.25;100961.13;4896245;29;20075;-64
2022/10/16 10:04:04;;;;;;;6.88;0.90;;;;;;;19.87;49.71;100960.13;4895467;29;20048;-65
2022/10/16 10:06:40;;;;;;;3.45;0.80;;;;;;;20.22;48.90;100959.72;4896440;29;20108;-65
2022/10/16 10:09:24;;;;;;;2.28;0.70;;;;;;;19.50;50.27;100962.50;4914483;29;20047;-66
2022/10/16 10:11:56;;;;;;;4.05;1.00;;;;;;;19.58;49.83;100971.50;4914548;29;20055;-65
2022/10/16 10:14:23;;;;;;;2.53;1.40;;;;;;;18.79;52.42;100973.22;4890563;29;20047;-65
2022/10/16 10:16:51;;;;;;;3.00;0.70;;;;;;;18.91;51.43;100965.28;4914883;29;20056;-67
2022/10/16 10:19:23;;;;;;;2.00;1.00;;;;;;;18.63;52.12;100969.03;4914964;29;20048;-66
2022/10/16 10:21:55;;;;;;;3.45;0.90;;;;;;;18.58;52.44;100970.69;4914205;29;20131;-66
2022/10/16 10:24:22;;;;;;;3.03;0.75;;;;;;;19.08;51.18;100972.00;4914781;29;20055;-67
2022/10/16 10:27:00;;;;;;;1.80;1.15;;;;;;;18.69;52.11;100976.38;4915179;29;20077;-66
2022/10/16 10:29:44;;;;;;;4.78;0.85;;;;;;;18.23;53.37;100979.00;4914638;29;20040;-65
2022/10/16 10:32:17;;;;;;;3.10;0.85;;;;;;;18.44;52.40;100980.72;4914368;29;20071;-66
2022/10/16 10:35:11;;;;;;;2.50;1.10;;;;;;;18.75;52.01;100977.41;4914510;29;20055;-66
2022/10/16 10:37:43;;;;;;;2.40;0.65;;;;;;;18.36;51.94;100981.75;4914505;29;20048;-65
2022/10/16 10:40:34;;;;;;;5.47;0.93;;;;;;;18.93;50.74;100996.69;4914670;29;20123;-66
2022/10/16 10:43:31;;;;;;;2.25;0.98;;;;;;;18.65;50.60;100998.72;4908729;29;20044;-65
2022/10/16 10:46:04;;;;;;;3.85;1.00;;;;;;;19.14;49.54;100997.50;4905526;29;20044;-65
2022/10/16 10:48:47;;;;;;;4.28;1.33;;;;;;;19.47;48.35;100984.69;4914307;29;20051;-66
2022/10/16 10:51:52;;;;;;;2.78;0.90;;;;;;;19.18;48.44;100996.91;4914523;29;20126;-65
2022/10/16 10:54:37;;;;;;;5.25;1.00;;;;;;;19.53;47.65;100996.63;4914267;29;20453;-67
2022/10/16 10:57:29;;;;;;;3.55;1.17;;;;;;;19.46;47.90;100999.38;4914274;29;20056;-67
2022/10/16 11:00:17;;;;;;;;;;;;;;;19.52;47.40;101000.41;4914679;29;20449;-65
2022/10/16 11:02:55;;;;;;;9.00;1.77;;;;;;;19.34;47.90;100987.44;4914312;29;19930;-67
2022/10/16 11:05:28;;;;;;;5.05;0.95;;;;;;;19.51;48.08;100985.09;4914492;29;20044;-65
2022/10/16 11:08:00;;;;;;;2.65;1.40;;;;;;;20.69;45.76;100998.44;4914095;29;20052;-66
2022/10/16 11:10:45;;;;;;;;;;;;;;;20.89;44.76;100999.13;4915183;29;20396;-67
2022/10/16 11:13:35;;;;;;;1.90;0.85;;;;;;;21.49;42.98;101014.97;4914270;29;19934;-67
2022/10/16 11:16:14;;;;;;;0.93;0.75;;;;;;;21.40;42.68;101012.78;4916355;29;20056;-69
2022/10/16 11:19:04;;;;;;;5.70;1.33;;;;;;;21.35;42.60;101006.06;4917738;29;20127;-66
2022/10/16 11:21:50;;;;;;;3.40;0.90;;;;;;;21.07;42.98;101001.06;4917487;29;20040;-70
2022/10/16 11:24:30;;;;;;;6.20;1.10;;;;;;;19.85;45.49;101000.31;4917499;29;20059;-64
2022/10/16 11:27:04;;;;;;;6.47;0.70;;;;;;;20.39;44.56;100995.47;4917997;29;20059;-62
2022/10/16 11:29:32;;;;;;;2.30;0.70;;;;;;;20.16;44.77;100998.72;4917931;29;20059;-63
2022/10/16 11:32:06;;;;;;;4.55;2.90;;;;;;;20.18;44.87;101010.25;4917255;29;20484;-62
2022/10/16 11:34:55;;;;;;;5.57;2.22;;;;;;;20.08;44.98;101004.44;4917138;29;20051;-63
2022/10/16 11:37:31;;;;;;;5.60;1.70;;;;;;;19.82;44.90;100999.91;4917312;29;20404;-62
2022/10/16 11:40:14;;;;;;;2.60;0.70;;;;;;;19.65;44.23;101007.69;4913981;29;20048;-63
2022/10/16 11:42:48;;;;;;;3.08;0.90;;;;;;;20.44;42.60;100998.41;4917116;29;20056;-61
2022/10/16 11:45:39;;;;;;;1.63;0.80;;;;;;;20.55;42.04;100997.69;4917394;29;20058;-64
2022/10/16 11:48:24;;;;;;;5.00;0.88;;;;;;;20.78;40.93;100999.00;4917149;29;20075;-64